This is the latest recevied weather packets stored in our database for station/object WMKM. If no packets are shown the sender has not sent any weather packets the latest 10 day(s).
| Time | Temp. | Humidity | Pressure | Rain* | Wind** | Luminosity | Snow |
|---|---|---|---|---|---|---|---|
| 1778011847 | 25.56° C | 94% | 1008 hPa | - | - | - | - |
| 1778008246 | 25.56° C | 94% | 1008 hPa | - | - | - | - |
| 1778004664 | 26.67° C | 88% | 1008 hPa | - | - | - | - |
| 1778001046 | 26.67° C | 88% | 1009 hPa | - | - | - | - |
| 1777997448 | 26.67° C | 88% | 1009 hPa | - | - | - | - |
| 1777995046 | 26.67° C | 88% | 1009 hPa | - | - | - | - |
| 1777994462 | 25° C | 94% | 1010.6 hPa | - | - | - | - |
| 1777993846 | 26.67° C | 88% | 1009 hPa | - | - | - | - |
| 1777986663 | 27.78° C | 83% | 1007 hPa | - | - | - | - |
| 1777983047 | 28.89° C | 79% | 1007 hPa | - | - | - | - |
| 1777979448 | 30° C | 70% | 1006 hPa | - | - | - | - |
| 1777975849 | 30° C | 70% | 1006 hPa | - | - | - | - |
| 1777972259 | 30° C | 70% | 1006 hPa | - | - | - | - |
| 1777968647 | 30.56° C | 66% | 1006 hPa | - | - | - | - |
| 1777965043 | 30.56° C | 66% | 1007 hPa | - | - | - | - |
| 1777961448 | 30.56° C | 66% | 1008 hPa | - | - | - | - |
| 1777957859 | 31.67° C | 66% | 1009 hPa | - | - | - | - |
| 1777954246 | 31.67° C | 66% | 1010 hPa | - | - | - | - |
| 1777950646 | 30.56° C | 70% | 1010 hPa | - | - | - | - |
| 1777947048 | 28.89° C | 79% | 1010 hPa | - | - | - | - |
| 1777943444 | 26.67° C | 83% | 1010 hPa | - | - | - | - |
| 1777939861 | 25° C | 94% | 1009 hPa | - | - | - | - |
| 1777936246 | 25° C | 94% | 1009 hPa | - | - | - | - |
| 1777932644 | 25° C | 94% | 1008 hPa | - | - | - | - |
| 1777929044 | 23.89° C | 10% | - | - | - | - | - |
* Rain since midnight (hover to see other rain measurements)
** Current wind speed in m/s (hover to see current wind gust speed)